KCHS

Charleston AFB / Intl Airport

Charleston, South Carolina, USA
METAR KCHS 181556Z 05012KT 10SM BKN040 BKN100 21/08 A3035 RMK AO2 SLP276 T02110083
Observed Flight Rules
Oct-18 @ 15:56 UTC (40 minutes ago) Visual Flight Rules
Wind Visibility Clouds
50° at 12 knots 10 miles
  • Broken at 4,000' AGL
  • Broken at 10,000' AGL
Temperatures Readings
Current 21°C / 70°F
Dewpoint 8°C / 46°F
Humidity 43%
Altimeter 30.35" Hg
Pressure 1027.6 hPa
Elevation 13
METAR KCHS 181556Z 05012KT 10SM BKN040 BKN100 21/08 A3035 RMK AO2 SLP276 T02110083
Observed Flight Rules
Oct-18 @ 15:56 UTC
(40 minutes ago)
VFR
Wind Visibility
50° at 12 knots 10 miles
Clouds
  • Broken at 4,000' AGL
  • Broken at 10,000' AGL
Temperature Dewpoint
21°C / 70°F 8°C / 46°F
Humidity Altimeter Pressure
43% 30.35" Hg 1027.6 hPa